Time;durP1;ratioP1;P1;durP2;ratioP2;P2;SDS_P1;SDS_P2;PMS_P1;PMS_P2;Temp;Humidity;BMP_temperature;BMP_pressure;BME280_temperature;BME280_humidity;BME280_pressure;Samples;Min_cycle;Max_cycle;Signal;HPM_P1;HPM_P2
2023/01/20 00:01:05;;;;;;;7.45;3.92;;;5.90;56.00;;;;;;4961896;28;20066;-47
2023/01/20 00:03:32;;;;;;;8.18;4.07;;;5.90;56.00;;;;;;4961061;28;20624;-48
2023/01/20 00:05:59;;;;;;;6.07;3.47;;;5.90;55.90;;;;;;4962202;28;20510;-50
2023/01/20 00:08:27;;;;;;;7.53;3.90;;;5.90;55.90;;;;;;4961240;28;20055;-46
2023/01/20 00:10:54;;;;;;;7.13;3.83;;;5.90;56.40;;;;;;4959564;28;20061;-46
2023/01/20 00:13:23;;;;;;;7.20;3.92;;;5.90;55.90;;;;;;4962165;28;20069;-47
2023/01/20 00:15:50;;;;;;;8.45;4.15;;;5.90;55.90;;;;;;4961811;28;20058;-48
2023/01/20 00:18:17;;;;;;;7.03;3.90;;;5.90;55.90;;;;;;4959365;28;20059;-47
2023/01/20 00:20:44;;;;;;;10.15;4.22;;;5.90;55.80;;;;;;4961943;28;20540;-49
2023/01/20 00:23:12;;;;;;;8.18;4.30;;;5.90;55.80;;;;;;4961258;28;20050;-48
2023/01/20 00:25:39;;;;;;;9.73;4.15;;;5.90;55.70;;;;;;4959690;28;20057;-47
2023/01/20 00:28:06;;;;;;;6.60;3.95;;;5.90;55.70;;;;;;4962339;28;20073;-48
2023/01/20 00:30:35;;;;;;;6.50;3.97;;;5.90;55.70;;;;;;4961504;28;20407;-49
2023/01/20 00:33:02;;;;;;;8.10;4.43;;;5.80;55.70;;;;;;4960151;28;20055;-46
2023/01/20 00:35:29;;;;;;;7.68;4.18;;;5.90;55.70;;;;;;4961681;28;20051;-49
2023/01/20 00:37:56;;;;;;;8.98;4.50;;;5.90;55.70;;;;;;4960760;28;20062;-46
2023/01/20 00:40:24;;;;;;;8.55;4.50;;;5.80;55.60;;;;;;4962304;28;20078;-49
2023/01/20 00:42:51;;;;;;;8.82;4.40;;;5.80;55.60;;;;;;4961122;28;20051;-48
2023/01/20 00:45:18;;;;;;;7.78;4.38;;;5.80;55.60;;;;;;4961241;28;20055;-45
2023/01/20 00:47:47;;;;;;;9.63;4.50;;;5.80;55.60;;;;;;4958623;28;20069;-50
2023/01/20 00:50:14;;;;;;;9.02;4.45;;;5.80;55.60;;;;;;4958535;28;20054;-45
2023/01/20 00:52:41;;;;;;;13.85;5.43;;;5.80;55.60;;;;;;4961302;28;20054;-47
2023/01/20 00:55:09;;;;;;;13.65;5.82;;;5.80;55.60;;;;;;4960220;28;20055;-46
2023/01/20 00:57:36;;;;;;;13.85;5.38;;;5.80;55.50;;;;;;4959169;28;20057;-45
2023/01/20 01:00:05;;;;;;;12.05;5.60;;;5.70;55.50;;;;;;4960233;28;20526;-47
2023/01/20 01:02:36;;;;;;;13.65;5.57;;;5.80;55.50;;;;;;4959551;28;20051;-49
2023/01/20 01:05:06;;;;;;;10.38;5.47;;;5.70;55.50;;;;;;4958872;28;20065;-46
2023/01/20 01:07:33;;;;;;;13.30;6.07;;;5.70;55.50;;;;;;4961468;28;20061;-46
2023/01/20 01:10:24;;;;;;;11.25;6.30;;;5.70;55.50;;;;;;5129094;27;24461;-47
2023/01/20 01:12:52;;;;;;;14.98;6.43;;;5.70;55.60;;;;;;5098410;28;20047;-44
2023/01/20 01:15:19;;;;;;;15.98;6.53;;;5.70;55.60;;;;;;5098479;28;20487;-47
2023/01/20 01:17:46;;;;;;;17.30;7.65;;;5.70;55.60;;;;;;5092201;28;20063;-45
2023/01/20 01:20:14;;;;;;;16.42;6.97;;;5.70;55.50;;;;;;5097705;28;20075;-46
2023/01/20 01:22:41;;;;;;;11.45;6.40;;;5.70;55.50;;;;;;5098452;28;20059;-44
2023/01/20 01:25:09;;;;;;;10.75;6.18;;;5.80;55.50;;;;;;5097122;28;20056;-46
2023/01/20 01:27:37;;;;;;;12.60;6.10;;;5.70;55.40;;;;;;5095551;28;20514;-44
2023/01/20 01:30:05;;;;;;;15.48;6.30;;;5.80;55.40;;;;;;5098099;28;20043;-48
2023/01/20 01:32:33;;;;;;;12.93;5.53;;;5.80;55.40;;;;;;5096116;28;20044;-44
2023/01/20 01:35:00;;;;;;;14.77;6.28;;;5.70;55.30;;;;;;5090539;28;20503;-49
2023/01/20 01:37:28;;;;;;;15.52;7.15;;;5.80;55.30;;;;;;5098086;28;20048;-44
2023/01/20 01:39:55;;;;;;;11.23;5.75;;;5.80;55.20;;;;;;5096533;28;20056;-45
2023/01/20 01:42:25;;;;;;;10.07;6.03;;;5.80;55.20;;;;;;5097449;28;20052;-44
2023/01/20 01:45:25;;;;;;;10.13;5.53;;;5.80;55.20;;;;;;5094876;28;20059;-46
2023/01/20 01:47:59;;;;;;;11.38;6.50;;;5.80;55.10;;;;;;4997399;28;20058;-44
2023/01/20 01:50:31;;;;;;;9.98;5.57;;;5.80;55.10;;;;;;5079929;27;20047;-48
2023/01/20 01:52:59;;;;;;;14.68;6.93;;;5.90;55.10;;;;;;5096798;28;20056;-46
2023/01/20 01:55:29;;;;;;;13.18;5.72;;;5.80;55.00;;;;;;5097647;28;20051;-45
2023/01/20 01:57:58;;;;;;;12.45;6.28;;;5.90;55.00;;;;;;5095373;28;20052;-45
2023/01/20 02:00:27;;;;;;;11.45;6.53;;;5.80;54.90;;;;;;5094481;28;20050;-46
2023/01/20 02:02:56;;;;;;;11.82;5.88;;;5.80;54.90;;;;;;5091060;28;20056;-47
2023/01/20 02:05:27;;;;;;;13.90;5.72;;;5.80;54.90;;;;;;5089998;28;20056;-45
2023/01/20 02:07:54;;;;;;;10.95;6.10;;;5.90;54.90;;;;;;5096196;28;20055;-44
2023/01/20 02:10:22;;;;;;;12.80;6.40;;;5.90;54.90;;;;;;5094397;28;20055;-46
2023/01/20 02:12:50;;;;;;;11.85;6.13;;;5.90;54.90;;;;;;5093169;28;21057;-44
2023/01/20 02:15:22;;;;;;;11.65;5.10;;;5.90;54.80;;;;;;5096652;28;20086;-46
2023/01/20 02:18:02;;;;;;;12.90;5.97;;;5.90;54.80;;;;;;5092111;28;20051;-44
2023/01/20 02:20:48;;;;;;;11.10;5.68;;;5.90;54.80;;;;;;5088516;28;20059;-44
2023/01/20 02:23:27;;;;;;;14.30;6.32;;;5.90;54.70;;;;;;5079224;28;20067;-45
2023/01/20 02:26:30;;;;;;;11.90;6.07;;;5.90;54.60;;;;;;5081482;28;20055;-45
2023/01/20 02:29:29;;;;;;;9.68;5.50;;;5.90;54.60;;;;;;5081988;28;20059;-47
2023/01/20 02:32:12;;;;;;;12.35;5.38;;;5.90;54.50;;;;;;5026619;28;20056;-44
2023/01/20 02:34:46;;;;;;;11.75;5.85;;;5.90;54.50;;;;;;5075648;28;20056;-47
2023/01/20 02:37:16;;;;;;;10.05;6.32;;;5.90;54.50;;;;;;5080300;28;20052;-43
2023/01/20 02:39:50;;;;;;;21.48;5.35;;;5.90;54.50;;;;;;5077159;28;20044;-46
2023/01/20 02:42:21;;;;;;;;;;;5.90;54.50;;;;;;5083747;28;20052;-46
2023/01/20 02:44:54;;;;;;;8.95;5.57;;;5.90;54.60;;;;;;5082643;28;20367;-45
2023/01/20 02:47:29;;;;;;;12.20;5.65;;;5.90;54.40;;;;;;5080709;28;20048;-47
2023/01/20 02:50:01;;;;;;;14.35;7.00;;;5.90;54.40;;;;;;5075673;28;20063;-45
2023/01/20 02:52:32;;;;;;;11.95;6.05;;;5.90;54.80;;;;;;5083671;28;20398;-44
2023/01/20 02:55:05;;;;;;;9.25;5.40;;;5.90;54.40;;;;;;5081419;28;20066;-45
2023/01/20 02:57:37;;;;;;;10.25;5.47;;;5.90;54.40;;;;;;5079183;28;20048;-45
2023/01/20 03:00:12;;;;;;;11.48;5.80;;;5.90;54.40;;;;;;5081754;28;20054;-46
2023/01/20 03:02:42;;;;;;;11.88;6.05;;;5.80;54.30;;;;;;5081510;28;20056;-45
2023/01/20 03:05:14;;;;;;;13.50;6.07;;;5.90;54.40;;;;;;5081615;28;20055;-47
2023/01/20 03:07:44;;;;;;;15.98;6.75;;;5.80;54.40;;;;;;5086928;28;20130;-44
2023/01/20 03:10:15;;;;;;;9.98;5.53;;;5.80;54.40;;;;;;5081214;28;20056;-45
2023/01/20 03:12:48;;;;;;;10.23;5.43;;;5.80;54.40;;;;;;5082623;28;20056;-45
2023/01/20 03:15:20;;;;;;;12.23;5.50;;;5.80;54.40;;;;;;5082784;28;20059;-45
2023/01/20 03:17:48;;;;;;;11.45;5.72;;;5.80;54.50;;;;;;5080007;28;20052;-45
2023/01/20 03:20:16;;;;;;;12.38;5.50;;;5.80;54.50;;;;;;5082417;28;20040;-44
2023/01/20 03:22:44;;;;;;;14.27;5.68;;;5.80;54.50;;;;;;5082190;28;20492;-46
2023/01/20 03:25:13;;;;;;;12.35;5.78;;;5.80;54.50;;;;;;5079763;28;20060;-46
2023/01/20 03:27:42;;;;;;;12.25;5.57;;;5.80;54.40;;;;;;5079979;28;20099;-45
2023/01/20 03:30:13;;;;;;;12.25;5.90;;;5.80;54.40;;;;;;5081196;28;20086;-46
2023/01/20 03:32:42;;;;;;;11.13;5.22;;;5.80;54.50;;;;;;5078116;28;20063;-46
2023/01/20 03:35:12;;;;;;;12.07;6.60;;;5.80;54.50;;;;;;5081682;28;20052;-47
2023/01/20 03:37:39;;;;;;;16.83;6.18;;;5.80;54.50;;;;;;5080588;28;20052;-46
2023/01/20 03:40:08;;;;;;;12.77;6.32;;;5.80;54.50;;;;;;5080183;28;20048;-48
2023/01/20 03:42:41;;;;;;;12.00;6.50;;;5.80;54.40;;;;;;5081937;28;20055;-46
2023/01/20 03:45:14;;;;;;;9.38;5.65;;;5.80;54.40;;;;;;5080848;28;20131;-44
2023/01/20 03:47:51;;;;;;;10.55;5.82;;;5.80;54.40;;;;;;5078531;28;20063;-44
2023/01/20 03:50:31;;;;;;;10.43;6.47;;;5.80;54.40;;;;;;5080978;28;20055;-43
2023/01/20 03:53:05;;;;;;;13.50;6.20;;;5.80;54.40;;;;;;5082597;28;20062;-44
2023/01/20 03:55:38;;;;;;;14.48;6.63;;;5.80;54.40;;;;;;5081440;28;20055;-44
2023/01/20 03:58:08;;;;;;;11.48;5.93;;;5.80;54.30;;;;;;5079577;28;20048;-44
2023/01/20 04:00:42;;;;;;;13.27;6.80;;;5.80;54.30;;;;;;5080769;28;20411;-46
2023/01/20 04:03:14;;;;;;;11.50;6.03;;;5.80;54.30;;;;;;5076772;28;20052;-45
2023/01/20 04:05:44;;;;;;;10.93;6.05;;;5.80;54.30;;;;;;5081345;28;20046;-44
2023/01/20 04:08:14;;;;;;;11.63;6.43;;;5.80;54.30;;;;;;5080154;28;20056;-47
2023/01/20 04:10:45;;;;;;;9.43;5.72;;;5.80;54.30;;;;;;5078756;28;20052;-45
2023/01/20 04:13:12;;;;;;;10.93;6.22;;;5.80;54.30;;;;;;5079916;28;20048;-45
2023/01/20 04:15:43;;;;;;;8.48;5.47;;;5.80;54.40;;;;;;5080436;28;20052;-45
2023/01/20 04:18:12;;;;;;;9.60;5.65;;;5.80;54.50;;;;;;5079487;28;20071;-47
2023/01/20 04:20:40;;;;;;;11.48;5.90;;;5.80;54.50;;;;;;5078823;28;20055;-44
2023/01/20 04:23:17;;;;;;;10.45;5.82;;;5.80;54.60;;;;;;5080774;28;20056;-48
2023/01/20 04:25:44;;;;;;;9.65;5.32;;;5.80;54.60;;;;;;5080142;28;20054;-45
2023/01/20 04:28:11;;;;;;;9.75;5.90;;;5.80;54.60;;;;;;5079761;28;20067;-46
2023/01/20 04:30:39;;;;;;;14.50;5.85;;;5.80;54.60;;;;;;5079967;28;20480;-46
2023/01/20 04:33:06;;;;;;;10.00;6.28;;;5.80;54.60;;;;;;5077565;28;20063;-50
2023/01/20 04:35:33;;;;;;;12.15;5.28;;;5.80;54.60;;;;;;5079936;28;20674;-47
2023/01/20 04:38:00;;;;;;;12.23;5.93;;;5.80;54.60;;;;;;5080305;28;20484;-44
2023/01/20 04:40:29;;;;;;;10.20;5.38;;;5.80;54.60;;;;;;5078880;28;20052;-46
2023/01/20 04:42:58;;;;;;;10.65;6.05;;;5.80;54.70;;;;;;5080980;28;20055;-46
2023/01/20 04:45:26;;;;;;;12.13;6.20;;;5.80;54.70;;;;;;5080149;28;20559;-46
2023/01/20 04:47:53;;;;;;;9.50;5.93;;;5.80;54.70;;;;;;5077508;28;20044;-45
2023/01/20 04:50:20;;;;;;;11.77;5.43;;;5.80;54.70;;;;;;5076845;28;20048;-45
2023/01/20 04:52:47;;;;;;;11.77;5.90;;;5.80;54.70;;;;;;5081565;28;20047;-45
2023/01/20 04:55:14;;;;;;;13.00;6.15;;;5.80;54.60;;;;;;5079393;28;20044;-48
2023/01/20 04:57:43;;;;;;;11.63;6.50;;;5.80;54.60;;;;;;5080165;28;20056;-44
2023/01/20 05:00:17;;;;;;;13.77;6.45;;;5.80;54.50;;;;;;5075433;28;20059;-46
2023/01/20 05:02:44;;;;;;;13.23;6.80;;;5.80;54.40;;;;;;5078042;28;20062;-43
2023/01/20 05:05:11;;;;;;;15.05;6.88;;;5.80;54.30;;;;;;5080551;28;20067;-44
2023/01/20 05:07:39;;;;;;;13.55;7.43;;;5.80;54.20;;;;;;5079874;28;20487;-43
2023/01/20 05:10:07;;;;;;;14.15;6.47;;;5.80;54.10;;;;;;5076171;28;20404;-47
2023/01/20 05:12:35;;;;;;;14.70;6.95;;;5.80;54.10;;;;;;5079863;28;20067;-43
2023/01/20 05:15:04;;;;;;;14.48;6.78;;;5.70;54.00;;;;;;5080483;28;20052;-47
2023/01/20 05:17:31;;;;;;;9.95;6.20;;;5.70;53.90;;;;;;5072692;28;20059;-47
2023/01/20 05:19:59;;;;;;;13.65;6.93;;;5.70;53.90;;;;;;5078659;28;20059;-46
2023/01/20 05:22:27;;;;;;;14.73;6.70;;;5.70;53.90;;;;;;5080739;28;20052;-46
2023/01/20 05:24:54;;;;;;;12.07;6.60;;;5.60;53.80;;;;;;5078287;28;20102;-43
2023/01/20 05:27:21;;;;;;;16.00;6.85;;;5.60;53.80;;;;;;5079025;28;20055;-43
2023/01/20 05:29:48;;;;;;;11.52;6.70;;;5.60;53.80;;;;;;5079943;28;20052;-43
2023/01/20 05:32:17;;;;;;;12.70;6.97;;;5.60;53.80;;;;;;5076167;28;20055;-44
2023/01/20 05:34:44;;;;;;;12.77;7.03;;;5.60;53.80;;;;;;5077569;28;20051;-44
2023/01/20 05:37:11;;;;;;;11.27;6.25;;;5.60;53.80;;;;;;5079547;28;20082;-48
2023/01/20 05:39:38;;;;;;;12.38;6.68;;;5.60;53.90;;;;;;5079043;28;20066;-47
2023/01/20 05:42:05;;;;;;;14.07;6.80;;;5.50;53.80;;;;;;5079025;28;20048;-44
2023/01/20 05:44:34;;;;;;;9.48;6.28;;;5.50;53.80;;;;;;5078835;28;20506;-47
2023/01/20 05:47:01;;;;;;;11.65;6.05;;;5.50;53.90;;;;;;5075691;28;20056;-46
2023/01/20 05:49:30;;;;;;;14.27;6.53;;;5.40;53.80;;;;;;5077535;28;20052;-48
2023/01/20 05:51:57;;;;;;;11.32;6.53;;;5.50;53.90;;;;;;5080182;28;20056;-44
2023/01/20 05:54:25;;;;;;;20.20;7.03;;;5.40;53.90;;;;;;5078813;28;20059;-43
2023/01/20 05:56:52;;;;;;;11.55;6.35;;;5.40;53.90;;;;;;5081888;28;20052;-44
2023/01/20 05:59:19;;;;;;;24.08;11.32;;;5.40;53.80;;;;;;5078461;28;20500;-45
2023/01/20 06:01:47;;;;;;;32.70;15.27;;;5.40;53.70;;;;;;5083498;28;20499;-44
2023/01/20 06:04:14;;;;;;;44.33;20.25;;;5.40;53.70;;;;;;5080947;28;20063;-44
2023/01/20 06:06:42;;;;;;;30.17;14.50;;;5.30;53.70;;;;;;5081272;28;20067;-45
2023/01/20 06:09:10;;;;;;;21.50;10.60;;;5.30;53.70;;;;;;5076181;28;20516;-45
2023/01/20 06:11:37;;;;;;;14.32;7.95;;;5.30;53.70;;;;;;5081459;28;20080;-44
2023/01/20 06:14:05;;;;;;;14.68;7.63;;;5.30;53.80;;;;;;5083688;28;20061;-43
2023/01/20 06:16:32;;;;;;;12.27;6.28;;;5.30;53.80;;;;;;5081397;28;20059;-47
2023/01/20 06:18:59;;;;;;;12.77;6.85;;;5.20;53.70;;;;;;5083513;28;20051;-44
2023/01/20 06:21:26;;;;;;;11.77;6.07;;;5.20;53.80;;;;;;5083056;28;20048;-44
2023/01/20 06:23:55;;;;;;;12.48;6.72;;;5.20;53.80;;;;;;5082049;28;20048;-48
2023/01/20 06:26:22;;;;;;;13.95;6.55;;;5.20;53.90;;;;;;5079919;28;20048;-46
2023/01/20 06:28:49;;;;;;;13.55;6.18;;;5.20;53.90;;;;;;5081974;28;20646;-47
2023/01/20 06:31:17;;;;;;;12.20;6.47;;;5.20;54.00;;;;;;5080361;28;20059;-47
2023/01/20 06:33:44;;;;;;;11.68;6.93;;;5.20;54.00;;;;;;5078901;28;20055;-47
2023/01/20 06:36:15;;;;;;;155.50;53.25;;;5.20;54.00;;;;;;5082497;28;20063;-44
2023/01/20 06:38:47;;;;;;;55.47;23.05;;;5.20;54.00;;;;;;5080207;28;20495;-45
2023/01/20 06:41:16;;;;;;;20.98;10.35;;;5.20;54.00;;;;;;5081372;28;20048;-43
2023/01/20 06:43:43;;;;;;;16.88;8.25;;;5.20;54.00;;;;;;5082833;28;20052;-45
2023/01/20 06:46:12;;;;;;;13.27;7.70;;;5.10;53.90;;;;;;5080274;28;20048;-43
2023/01/20 06:48:39;;;;;;;14.60;7.28;;;5.10;54.00;;;;;;5073554;28;20048;-49
2023/01/20 06:51:09;;;;;;;12.38;7.40;;;5.10;54.00;;;;;;5082070;28;20488;-43
2023/01/20 06:53:36;;;;;;;11.82;7.05;;;5.10;54.00;;;;;;5074080;28;20519;-48
2023/01/20 06:56:04;;;;;;;15.65;7.40;;;5.10;54.10;;;;;;5078110;28;20056;-46
2023/01/20 06:58:33;;;;;;;12.68;7.18;;;5.10;54.10;;;;;;5083387;28;20047;-47
2023/01/20 07:01:07;;;;;;;21.77;8.23;;;5.20;54.20;;;;;;5078781;28;20048;-45
2023/01/20 07:03:34;;;;;;;13.07;7.50;;;5.10;54.10;;;;;;5081533;28;20075;-43
2023/01/20 07:06:03;;;;;;;14.98;7.07;;;5.10;54.10;;;;;;5073858;28;20515;-44
2023/01/20 07:08:31;;;;;;;13.85;7.55;;;5.10;54.10;;;;;;5075043;28;20508;-45
2023/01/20 07:10:58;;;;;;;16.08;8.15;;;5.10;54.10;;;;;;5077654;28;20048;-45
2023/01/20 07:13:25;;;;;;;12.43;6.78;;;5.10;54.10;;;;;;5082777;28;20059;-46
2023/01/20 07:15:54;;;;;;;16.08;7.05;;;5.10;54.20;;;;;;5082602;28;20047;-43
2023/01/20 07:18:21;;;;;;;11.80;6.88;;;5.10;54.20;;;;;;5080175;28;20056;-46
2023/01/20 07:20:53;;;;;;;15.10;7.68;;;5.10;54.30;;;;;;5071927;28;20653;-46
2023/01/20 07:23:20;;;;;;;19.10;9.07;;;5.20;54.30;;;;;;5082884;28;20411;-43
2023/01/20 07:25:48;;;;;;;15.30;7.88;;;5.20;54.30;;;;;;5079144;28;20063;-50
2023/01/20 07:28:15;;;;;;;147.18;47.47;;;5.20;54.20;;;;;;5083023;28;20169;-46
2023/01/20 07:30:42;;;;;;;86.82;30.65;;;5.10;54.20;;;;;;5082161;28;20440;-47
2023/01/20 07:33:11;;;;;;;38.85;14.77;;;5.10;54.20;;;;;;5083716;28;20055;-45
2023/01/20 07:35:38;;;;;;;18.98;10.18;;;5.10;54.20;;;;;;5083512;28;20056;-44
2023/01/20 07:38:05;;;;;;;16.55;8.93;;;5.20;54.30;;;;;;5084923;28;20063;-48
2023/01/20 07:40:32;;;;;;;13.15;8.40;;;5.10;54.20;;;;;;5073655;28;20056;-45
2023/01/20 07:43:02;;;;;;;16.85;8.43;;;5.10;54.20;;;;;;5062372;28;21210;-45
2023/01/20 07:45:29;;;;;;;14.07;7.85;;;5.10;54.20;;;;;;5060407;28;20053;-43
2023/01/20 07:47:57;;;;;;;17.00;9.15;;;5.20;54.30;;;;;;5061454;28;20068;-46
2023/01/20 07:50:25;;;;;;;17.95;8.80;;;5.10;54.20;;;;;;5061628;28;20412;-43
2023/01/20 07:52:53;;;;;;;18.35;10.23;;;5.10;54.20;;;;;;5061142;28;20055;-47
2023/01/20 07:55:21;;;;;;;15.60;8.68;;;5.10;54.20;;;;;;5060443;28;20048;-44
2023/01/20 07:57:49;;;;;;;18.27;9.38;;;5.10;54.20;;;;;;5060665;28;20425;-44
2023/01/20 08:00:18;;;;;;;15.10;8.85;;;5.10;54.30;;;;;;5061206;28;20056;-44
2023/01/20 08:02:45;;;;;;;16.25;8.93;;;5.10;54.30;;;;;;5061696;28;20381;-46
2023/01/20 08:05:13;;;;;;;20.38;10.02;;;5.10;54.40;;;;;;5061469;28;20060;-45
2023/01/20 08:07:41;;;;;;;18.73;8.60;;;5.10;54.40;;;;;;5061650;28;20062;-46
2023/01/20 08:10:09;;;;;;;17.40;9.27;;;5.10;54.30;;;;;;5058653;28;20060;-46
2023/01/20 08:12:36;;;;;;;14.20;8.70;;;5.10;54.40;;;;;;5061415;28;20040;-46
2023/01/20 08:15:04;;;;;;;14.48;8.93;;;5.10;54.40;;;;;;5060076;28;20053;-47
2023/01/20 08:17:31;;;;;;;15.15;8.40;;;5.20;54.40;;;;;;5060916;28;20603;-44
2023/01/20 08:19:59;;;;;;;14.73;8.65;;;5.20;54.50;;;;;;5060469;28;20428;-43
2023/01/20 08:22:26;;;;;;;18.13;9.15;;;5.20;54.50;;;;;;5059946;28;20048;-47
2023/01/20 08:24:55;;;;;;;17.05;9.38;;;5.20;54.50;;;;;;5057563;28;20497;-47
2023/01/20 08:27:22;;;;;;;18.35;9.60;;;5.20;54.40;;;;;;5061929;28;20060;-44
2023/01/20 08:29:49;;;;;;;16.58;9.93;;;5.20;54.40;;;;;;5059646;28;20067;-48
2023/01/20 08:32:16;;;;;;;21.17;10.02;;;5.20;54.40;;;;;;5058792;28;20044;-43
2023/01/20 08:34:44;;;;;;;18.60;9.57;;;5.20;54.40;;;;;;5060933;28;20049;-44
2023/01/20 08:37:11;;;;;;;17.88;9.27;;;5.20;54.40;;;;;;5059670;28;20063;-44
2023/01/20 08:39:38;;;;;;;18.70;9.32;;;5.20;54.40;;;;;;5060671;28;20045;-45
2023/01/20 08:42:07;;;;;;;17.20;10.20;;;5.20;54.40;;;;;;5061064;28;20497;-44
2023/01/20 08:44:34;;;;;;;16.23;9.98;;;5.20;54.40;;;;;;5057855;28;20408;-44
2023/01/20 08:47:02;;;;;;;21.42;10.05;;;5.20;54.40;;;;;;5055959;28;20099;-45
2023/01/20 08:49:29;;;;;;;17.65;10.15;;;5.20;54.40;;;;;;5059893;28;20056;-45
2023/01/20 08:51:57;;;;;;;22.83;11.48;;;5.20;54.40;;;;;;5061488;28;20063;-44
2023/01/20 08:54:24;;;;;;;16.10;10.45;;;5.20;54.40;;;;;;5058454;28;20416;-47
2023/01/20 08:56:52;;;;;;;17.13;9.88;;;5.20;54.30;;;;;;5058277;28;20041;-47
2023/01/20 08:59:21;;;;;;;41.22;18.40;;;5.20;54.30;;;;;;5059844;28;20063;-48
2023/01/20 09:01:48;;;;;;;30.88;14.18;;;5.20;54.30;;;;;;5060386;28;20044;-44
2023/01/20 09:04:15;;;;;;;22.10;12.05;;;5.20;54.30;;;;;;5062238;28;20052;-43
2023/01/20 09:06:45;;;;;;;20.20;10.93;;;5.10;54.20;;;;;;5057856;28;20056;-44
2023/01/20 09:09:14;;;;;;;21.70;10.85;;;5.10;54.30;;;;;;5057414;28;20060;-44
2023/01/20 09:11:43;;;;;;;19.27;10.68;;;5.10;54.40;;;;;;5060688;28;20067;-46
2023/01/20 09:14:10;;;;;;;20.60;10.77;;;5.10;54.50;;;;;;5056111;28;20057;-43
2023/01/20 09:16:39;;;;;;;19.58;11.02;;;5.20;54.70;;;;;;5061421;28;20059;-44
2023/01/20 09:19:06;;;;;;;18.55;11.02;;;5.20;54.70;;;;;;5059865;28;20419;-44
2023/01/20 09:21:33;;;;;;;18.95;11.43;;;5.20;54.70;;;;;;5059157;28;20052;-43
2023/01/20 09:24:01;;;;;;;16.88;10.13;;;5.20;54.70;;;;;;5058813;28;20055;-49
2023/01/20 09:26:37;;;;;;;18.58;9.70;;;5.20;54.70;;;;;;5062705;28;20048;-44
2023/01/20 09:29:08;;;;;;;20.85;10.55;;;5.20;54.70;;;;;;5058936;28;20053;-45
2023/01/20 09:31:36;;;;;;;20.20;11.23;;;5.20;54.70;;;;;;5061008;28;20063;-45
2023/01/20 09:34:04;;;;;;;19.17;10.55;;;5.30;54.80;;;;;;5063458;28;20053;-47
2023/01/20 09:36:32;;;;;;;18.33;10.40;;;5.30;54.80;;;;;;5065607;28;20045;-46
2023/01/20 09:44:49;;;;;;;18.92;11.52;;;5.40;54.70;;;;;;5034811;28;20049;-47
2023/01/20 09:47:25;;;;;;;21.73;12.10;;;5.40;54.70;;;;;;5062472;28;20060;-43
2023/01/20 09:53:31;;;;;;;28.40;14.15;;;5.40;54.60;;;;;;5071207;28;20059;-44
2023/01/20 09:56:01;;;;;;;27.35;13.00;;;5.40;54.50;;;;;;5064524;28;20056;-45
2023/01/20 09:58:35;;;;;;;18.50;11.80;;;5.40;54.50;;;;;;5064415;28;20052;-43
2023/01/20 10:01:11;;;;;;;23.15;10.63;;;5.40;54.40;;;;;;5059949;28;20492;-44
2023/01/20 10:03:45;;;;;;;18.67;10.10;;;5.40;54.40;;;;;;5064610;28;20059;-45
2023/01/20 10:06:19;;;;;;;17.02;10.20;;;5.40;54.40;;;;;;5062749;28;20440;-49
2023/01/20 10:08:52;;;;;;;15.90;9.55;;;5.40;54.30;;;;;;5059959;28;20067;-46
2023/01/20 10:11:22;;;;;;;18.23;9.75;;;5.40;54.30;;;;;;5061089;28;20746;-45
2023/01/20 10:13:55;;;;;;;16.85;10.40;;;5.50;54.40;;;;;;5062944;28;20055;-46
2023/01/20 10:16:29;;;;;;;43.03;21.63;;;5.50;54.50;;;;;;5064744;28;20052;-45
2023/01/20 10:19:01;;;;;;;30.75;14.45;;;5.50;54.60;;;;;;5064987;28;21393;-46
2023/01/20 10:21:37;;;;;;;18.65;11.13;;;5.50;54.50;;;;;;5064633;28;20048;-43
2023/01/20 10:24:10;;;;;;;29.08;14.18;;;5.60;54.60;;;;;;5064749;28;20477;-44
2023/01/20 10:26:46;;;;;;;34.95;19.45;;;5.60;54.60;;;;;;5062506;28;20519;-44
2023/01/20 10:29:18;;;;;;;36.47;20.20;;;5.60;54.40;;;;;;5065558;28;20480;-48
2023/01/20 10:31:53;;;;;;;26.15;15.30;;;5.70;54.40;;;;;;5061883;28;20056;-46
2023/01/20 10:34:21;;;;;;;21.27;12.15;;;5.70;54.40;;;;;;5062977;28;20777;-45
2023/01/20 10:36:59;;;;;;;19.15;11.20;;;5.80;54.90;;;;;;5063202;28;20049;-44
2023/01/20 10:39:33;;;;;;;22.10;11.52;;;5.80;54.40;;;;;;5061006;28;20100;-45
2023/01/20 10:42:04;;;;;;;21.08;10.77;;;5.80;54.30;;;;;;5064650;28;20115;-46
2023/01/20 10:44:35;;;;;;;18.77;9.60;;;5.80;54.30;;;;;;5065620;28;20056;-45
2023/01/20 10:47:16;;;;;;;19.60;10.63;;;5.90;54.30;;;;;;5062112;28;20075;-45
2023/01/20 10:50:08;;;;;;;23.05;11.50;;;5.90;54.30;;;;;;5064334;28;20412;-43
2023/01/20 10:52:59;;;;;;;30.05;15.20;;;5.90;54.20;;;;;;5064114;28;20059;-46
2023/01/20 10:55:38;;;;;;;24.88;11.68;;;6.00;54.20;;;;;;5062690;28;20503;-43
2023/01/20 10:58:17;;;;;;;17.90;10.63;;;6.00;54.20;;;;;;5060690;28;20381;-48
2023/01/20 11:00:45;;;;;;;20.10;11.23;;;6.00;54.20;;;;;;5058954;28;20396;-45
2023/01/20 11:03:15;;;;;;;23.17;10.55;;;6.00;54.20;;;;;;5058197;28;20071;-46
2023/01/20 11:05:43;;;;;;;17.38;10.70;;;6.00;54.20;;;;;;5059389;28;20127;-47
2023/01/20 11:08:16;;;;;;;24.42;12.82;;;6.10;54.10;;;;;;5059212;28;20060;-45
2023/01/20 11:10:43;;;;;;;21.30;11.88;;;6.10;54.00;;;;;;5060479;28;20415;-45
2023/01/20 11:13:11;;;;;;;21.33;11.63;;;6.10;54.00;;;;;;5058610;28;20404;-43
2023/01/20 11:15:43;;;;;;;20.92;10.98;;;6.10;54.00;;;;;;5061584;28;20055;-46
2023/01/20 11:18:22;;;;;;;15.82;10.27;;;6.10;54.10;;;;;;5062258;28;20052;-44
2023/01/20 11:20:52;;;;;;;18.73;10.68;;;6.10;54.70;;;;;;5059475;28;20055;-46
2023/01/20 11:23:23;;;;;;;18.15;10.45;;;6.10;54.30;;;;;;5060581;28;20052;-44
2023/01/20 11:25:55;;;;;;;18.50;10.73;;;6.10;54.30;;;;;;5059925;28;20052;-47
2023/01/20 11:28:23;;;;;;;26.70;16.30;;;6.20;54.30;;;;;;5059122;28;20517;-45
2023/01/20 11:30:52;;;;;;;29.38;16.10;;;6.20;54.30;;;;;;5061602;28;20405;-47
2023/01/20 11:33:21;;;;;;;21.67;12.63;;;6.20;54.20;;;;;;5062149;28;20473;-45
2023/01/20 11:36:02;;;;;;;16.83;10.70;;;6.30;54.20;;;;;;5059641;28;20051;-45
2023/01/20 11:38:32;;;;;;;18.42;11.50;;;6.30;54.10;;;;;;5056400;28;20419;-46
2023/01/20 11:40:59;;;;;;;19.73;10.35;;;6.30;54.10;;;;;;5062208;28;20519;-43
2023/01/20 11:43:31;;;;;;;18.90;10.85;;;6.30;54.10;;;;;;5059604;28;20048;-46
2023/01/20 11:46:25;;;;;;;16.05;10.45;;;6.30;54.10;;;;;;5060091;28;20048;-44
2023/01/20 11:49:13;;;;;;;20.05;11.13;;;6.40;54.00;;;;;;5062488;28;20048;-45
2023/01/20 11:51:50;;;;;;;18.65;10.82;;;6.40;53.90;;;;;;5060575;28;20416;-44
2023/01/20 11:54:21;;;;;;;17.70;10.70;;;6.40;53.90;;;;;;5061408;28;20056;-45
2023/01/20 11:56:51;;;;;;;20.17;11.15;;;6.40;53.90;;;;;;5062816;28;20428;-45
2023/01/20 11:59:23;;;;;;;18.73;10.77;;;6.40;53.80;;;;;;5061181;28;20444;-48
2023/01/20 12:01:56;;;;;;;20.00;10.15;;;6.40;53.80;;;;;;5062496;28;20057;-44
2023/01/20 12:04:42;;;;;;;19.42;10.25;;;6.50;54.30;;;;;;5062819;28;20048;-46
2023/01/20 12:07:12;;;;;;;19.83;10.85;;;6.50;53.70;;;;;;5062845;28;20063;-43
2023/01/20 12:09:44;;;;;;;19.05;10.60;;;6.50;53.70;;;;;;5059827;28;20061;-48
2023/01/20 12:12:17;;;;;;;21.48;10.95;;;6.50;53.70;;;;;;5063675;28;20061;-44
2023/01/20 12:14:50;;;;;;;16.98;9.93;;;6.50;53.70;;;;;;5057902;28;20123;-45
2023/01/20 12:17:21;;;;;;;17.95;10.27;;;6.50;53.70;;;;;;5062545;28;20049;-48
2023/01/20 12:20:03;;;;;;;20.98;10.88;;;6.50;53.70;;;;;;5056830;28;20060;-45
2023/01/20 12:22:39;;;;;;;17.73;9.50;;;6.50;53.70;;;;;;5058807;28;20063;-45
2023/01/20 12:25:18;;;;;;;21.30;11.35;;;6.50;53.70;;;;;;5060128;28;20052;-47
2023/01/20 12:27:49;;;;;;;18.77;11.02;;;6.50;53.60;;;;;;5061378;28;20051;-44
2023/01/20 12:30:39;;;;;;;18.23;9.55;;;6.60;53.60;;;;;;5055501;28;20068;-48
2023/01/20 12:33:19;;;;;;;20.25;10.07;;;6.60;53.50;;;;;;5060483;28;20044;-47
2023/01/20 12:36:07;;;;;;;15.77;9.20;;;6.60;53.40;;;;;;5059976;28;20044;-44
2023/01/20 12:38:42;;;;;;;17.67;9.68;;;6.60;53.20;;;;;;5061057;28;20515;-46
2023/01/20 12:41:27;;;;;;;16.63;9.45;;;6.60;53.20;;;;;;5060971;28;20052;-46
2023/01/20 12:43:59;;;;;;;14.68;9.00;;;6.60;53.20;;;;;;5058656;28;20397;-43
2023/01/20 12:46:35;;;;;;;16.88;9.27;;;6.60;53.30;;;;;;5060116;28;20381;-46
2023/01/20 12:49:22;;;;;;;18.98;9.70;;;6.60;53.20;;;;;;5061010;28;20053;-45
2023/01/20 12:52:03;;;;;;;16.80;9.15;;;6.50;53.00;;;;;;5060542;28;20523;-45
2023/01/20 12:54:52;;;;;;;16.65;8.70;;;6.60;53.20;;;;;;5060165;28;20048;-47
2023/01/20 12:57:32;;;;;;;15.32;8.55;;;6.60;53.20;;;;;;5054717;28;20056;-48
2023/01/20 13:00:17;;;;;;;20.98;9.38;;;6.50;53.10;;;;;;5058999;28;20056;-45
2023/01/20 13:03:01;;;;;;;17.40;9.18;;;6.60;53.10;;;;;;5061287;28;20064;-44
2023/01/20 13:05:56;;;;;;;13.10;8.57;;;6.50;53.00;;;;;;5059192;28;20053;-44
2023/01/20 13:08:31;;;;;;;16.35;8.55;;;6.50;53.50;;;;;;5043537;28;20063;-47
2023/01/20 13:11:09;;;;;;;67.50;26.00;;;6.50;53.20;;;;;;5061549;28;20459;-45
2023/01/20 13:13:50;;;;;;;29.65;14.93;;;6.50;53.20;;;;;;5060395;28;20041;-47